Veuillez saisir l'adresse e-mail associée à votre compte d'utilisateur. Un code de vérification vous sera adressé. Lorsque vous le recevrez, vous pourrez choisir un nouveau mot de passe

METAR TAF

[Source: ADDS]
METAR
LFCR 230500Z AUTO 23007KT 9999 BKN006/// OVC010/// ///TCU 03/02 Q1005 TEMPO 4000 RA OVC011 =
LFCR 222300Z 2300/2324 27012KT 9999 OVC007 PROB40 TEMPO 2300/2305 4000 SHRA BKN004 SCT015TCU PROB30 TEMPO 2300/2305 2000 SHRASN BKN002 TEMPO 2305/2311 4000 RA OVC011 PROB40 TEMPO 2311/2318 29015G25KT 4000 SHRA BKN012 SCT015TCU BECMG 2318/2321 VRB03KT 3000 -SN OVC003 LFBA 230500Z AUTO 21003KT 140V250 9999 SCT044/// BKN052/// BKN064/// ///TCU 07/05 Q1005 =
LFSL 230500Z AUTO 17005KT 130V200 9999 OVC002/// ///TCU 04/04 Q1003 TEMPO 4000 RA BECMG 22015G25KT OVC005 =
AMD LFSL 230424Z 2304/2312 23006KT 9999 OVC005 TEMPO 2304/2306 3000 RA OVC002 BECMG 2306/2308 22015G25KT BECMG 2310/2312 BKN012 TEMPO 2306/2312 4000 RA
TAF
LFCR 222300Z 2300/2324 27012KT 9999 OVC007 PROB40 TEMPO 2300/2305 4000 SHRA BKN004 SCT015TCU PROB30 TEMPO 2300/2305 2000 SHRASN BKN002 TEMPO 2305/2311 4000 RA OVC011 PROB40 TEMPO 2311/2318 29015G25KT 4000 SHRA BKN012 SCT015TCU BECMG 2318/2321 VRB03KT 3000 -SN OVC003 =
AMD LFSL 230424Z 2304/2312 23006KT 9999 OVC005 TEMPO 2304/2306 3000 RA OVC002 BECMG 2306/2308 22015G25KT BECMG 2310/2312 BKN012 TEMPO 2306/2312 4000 RA =
SR / SS: 07:20 / 16:51 UTC (LFCC 2021-01-23)